Ovett, Mississippi
Current Conditions -  °F | °C
As of 7:55 PM on Tuesday 25 Nov 2014 (Local Time) from KPIB Reporting Station
Clear Clear  
Wind Chill: 43°   Ceiling: Unl
Heat Index: 46°   Visibility: 10mi
Dew Point: 27°   Wind: 7mph
Humidity: 46%   Direction: 330°NNW
Pressure: 30.2"   Gusts: NA
Location:  31.48°N, 89.04°W
Report Text: KPIB 260155Z AUTO 33006KT 10SM CLR 08/M03 A3020 RMK AO1
Loading
Personal Weather Stations






























Interactive Weather Map New forecast layout! Learn more

10-Day Weather Forecast

Advertisements
Track Severe Weather on mobile